sensor_id;sensor_type;location;lat;lon;timestamp;pressure;altitude;pressure_sealevel;temperature;humidity
64698;BME280;51124;53.394;-6.294;2023-05-01T00:01:32;101040.08;;;18.91;11.15
64698;BME280;51124;53.394;-6.294;2023-05-01T00:03:59;101042.54;;;19.53;10.74
64698;BME280;51124;53.394;-6.294;2023-05-01T00:06:26;101042.62;;;18.74;10.79
64698;BME280;51124;53.394;-6.294;2023-05-01T00:08:54;101041.22;;;19.08;10.46
64698;BME280;51124;53.394;-6.294;2023-05-01T00:11:21;101042.53;;;18.54;10.47
64698;BME280;51124;53.394;-6.294;2023-05-01T00:13:48;101042.28;;;19.04;10.37
64698;BME280;51124;53.394;-6.294;2023-05-01T00:16:15;101040.27;;;18.84;10.39
64698;BME280;51124;53.394;-6.294;2023-05-01T00:18:43;101045.12;;;19.35;10.18
64698;BME280;51124;53.394;-6.294;2023-05-01T00:21:10;101040.91;;;19.05;10.08
64698;BME280;51124;53.394;-6.294;2023-05-01T00:23:37;101040.77;;;19.47;10.04
64698;BME280;51124;53.394;-6.294;2023-05-01T00:26:04;101044.55;;;19.07;10.30
64698;BME280;51124;53.394;-6.294;2023-05-01T00:28:32;101043.07;;;18.40;10.11
64698;BME280;51124;53.394;-6.294;2023-05-01T00:30:59;101040.55;;;18.79;10.07
64698;BME280;51124;53.394;-6.294;2023-05-01T00:33:26;101038.84;;;19.38;9.91
64698;BME280;51124;53.394;-6.294;2023-05-01T00:35:53;101038.48;;;19.51;9.86
64698;BME280;51124;53.394;-6.294;2023-05-01T00:38:21;101039.81;;;19.35;9.84
64698;BME280;51124;53.394;-6.294;2023-05-01T00:40:48;101040.33;;;19.40;9.83
64698;BME280;51124;53.394;-6.294;2023-05-01T00:43:15;101038.83;;;18.97;9.99
64698;BME280;51124;53.394;-6.294;2023-05-01T00:45:44;101039.92;;;18.86;9.93
64698;BME280;51124;53.394;-6.294;2023-05-01T00:48:11;101042.38;;;19.32;9.78
64698;BME280;51124;53.394;-6.294;2023-05-01T00:50:39;101041.25;;;19.32;9.84
64698;BME280;51124;53.394;-6.294;2023-05-01T00:53:06;101043.38;;;18.79;9.84
64698;BME280;51124;53.394;-6.294;2023-05-01T00:55:34;101039.68;;;20.04;9.74
64698;BME280;51124;53.394;-6.294;2023-05-01T00:58:02;101042.44;;;18.90;9.93
64698;BME280;51124;53.394;-6.294;2023-05-01T01:00:29;101045.76;;;19.27;9.74
64698;BME280;51124;53.394;-6.294;2023-05-01T01:02:56;101047.33;;;18.66;9.94
64698;BME280;51124;53.394;-6.294;2023-05-01T01:05:26;101048.55;;;18.88;9.89
64698;BME280;51124;53.394;-6.294;2023-05-01T01:08:02;101050.22;;;18.90;9.85
64698;BME280;51124;53.394;-6.294;2023-05-01T01:10:26;101046.79;;;18.95;9.75
64698;BME280;51124;53.394;-6.294;2023-05-01T01:12:53;101049.74;;;19.31;9.60
64698;BME280;51124;53.394;-6.294;2023-05-01T01:15:21;101047.45;;;19.43;9.86
64698;BME280;51124;53.394;-6.294;2023-05-01T01:17:43;101043.65;;;19.46;9.74
64698;BME280;51124;53.394;-6.294;2023-05-01T01:20:23;101046.79;;;18.87;9.69
64698;BME280;51124;53.394;-6.294;2023-05-01T01:22:45;101045.20;;;19.24;9.68
64698;BME280;51124;53.394;-6.294;2023-05-01T01:27:55;101045.66;;;19.60;9.79
64698;BME280;51124;53.394;-6.294;2023-05-01T01:30:54;101043.82;;;19.35;9.67
64698;BME280;51124;53.394;-6.294;2023-05-01T01:32:55;101041.68;;;19.12;9.91
64698;BME280;51124;53.394;-6.294;2023-05-01T01:35:09;101040.92;;;19.72;9.67
64698;BME280;51124;53.394;-6.294;2023-05-01T01:37:42;101043.51;;;19.09;9.89
64698;BME280;51124;53.394;-6.294;2023-05-01T01:40:06;101041.70;;;19.04;9.93
64698;BME280;51124;53.394;-6.294;2023-05-01T01:42:40;101047.71;;;18.87;10.06
64698;BME280;51124;53.394;-6.294;2023-05-01T01:45:14;101038.61;;;19.59;9.76
64698;BME280;51124;53.394;-6.294;2023-05-01T01:47:45;101032.10;;;18.39;9.94
64698;BME280;51124;53.394;-6.294;2023-05-01T01:50:15;101034.90;;;19.53;9.73
64698;BME280;51124;53.394;-6.294;2023-05-01T01:52:46;101033.18;;;20.64;9.91
64698;BME280;51124;53.394;-6.294;2023-05-01T01:55:16;101035.65;;;21.08;10.41
64698;BME280;51124;53.394;-6.294;2023-05-01T01:57:46;101033.50;;;19.33;10.71
64698;BME280;51124;53.394;-6.294;2023-05-01T02:00:15;101025.48;;;18.94;10.67
64698;BME280;51124;53.394;-6.294;2023-05-01T02:02:44;101024.02;;;22.85;10.75
64698;BME280;51124;53.394;-6.294;2023-05-01T02:05:15;101027.89;;;21.99;11.22
64698;BME280;51124;53.394;-6.294;2023-05-01T02:07:47;101022.86;;;21.88;11.63
64698;BME280;51124;53.394;-6.294;2023-05-01T02:10:15;101022.97;;;22.06;11.79
64698;BME280;51124;53.394;-6.294;2023-05-01T02:12:46;101020.34;;;21.52;11.99
64698;BME280;51124;53.394;-6.294;2023-05-01T02:15:15;101014.70;;;21.79;12.02
64698;BME280;51124;53.394;-6.294;2023-05-01T02:17:44;101022.72;;;21.06;12.39
64698;BME280;51124;53.394;-6.294;2023-05-01T02:20:12;101023.48;;;21.84;12.04
64698;BME280;51124;53.394;-6.294;2023-05-01T02:22:41;101023.56;;;21.32;12.17
64698;BME280;51124;53.394;-6.294;2023-05-01T02:25:12;101027.62;;;20.88;12.39
64698;BME280;51124;53.394;-6.294;2023-05-01T02:27:42;101018.35;;;21.04;12.16
64698;BME280;51124;53.394;-6.294;2023-05-01T02:30:11;101026.87;;;20.75;12.39
64698;BME280;51124;53.394;-6.294;2023-05-01T02:32:39;101025.60;;;20.57;12.39
64698;BME280;51124;53.394;-6.294;2023-05-01T02:35:06;101028.33;;;20.71;12.39
64698;BME280;51124;53.394;-6.294;2023-05-01T02:37:34;101022.09;;;21.38;12.31
64698;BME280;51124;53.394;-6.294;2023-05-01T02:40:04;101025.96;;;20.38;12.53
64698;BME280;51124;53.394;-6.294;2023-05-01T02:42:33;101026.80;;;20.63;12.41
64698;BME280;51124;53.394;-6.294;2023-05-01T02:45:03;101021.77;;;20.88;12.36
64698;BME280;51124;53.394;-6.294;2023-05-01T02:47:34;101023.82;;;21.19;12.41
64698;BME280;51124;53.394;-6.294;2023-05-01T02:50:04;101019.88;;;19.99;12.72
64698;BME280;51124;53.394;-6.294;2023-05-01T02:52:32;101017.69;;;18.33;12.46
64698;BME280;51124;53.394;-6.294;2023-05-01T02:55:00;101016.98;;;18.64;11.83
64698;BME280;51124;53.394;-6.294;2023-05-01T02:57:28;101018.34;;;18.86;11.46
64698;BME280;51124;53.394;-6.294;2023-05-01T02:59:55;101021.63;;;18.70;11.07
64698;BME280;51124;53.394;-6.294;2023-05-01T03:02:22;101018.55;;;18.80;10.84
64698;BME280;51124;53.394;-6.294;2023-05-01T03:04:49;101021.42;;;18.53;10.74
64698;BME280;51124;53.394;-6.294;2023-05-01T03:07:17;101022.11;;;18.56;10.59
64698;BME280;51124;53.394;-6.294;2023-05-01T03:09:44;101021.79;;;19.07;10.51
64698;BME280;51124;53.394;-6.294;2023-05-01T03:12:11;101017.12;;;17.95;10.61
64698;BME280;51124;53.394;-6.294;2023-05-01T03:14:38;101012.67;;;19.34;10.14
64698;BME280;51124;53.394;-6.294;2023-05-01T03:17:05;101016.46;;;17.68;10.58
64698;BME280;51124;53.394;-6.294;2023-05-01T03:19:33;101015.29;;;18.79;10.23
64698;BME280;51124;53.394;-6.294;2023-05-01T03:22:00;101010.66;;;18.31;10.38
64698;BME280;51124;53.394;-6.294;2023-05-01T03:24:27;101011.32;;;18.69;10.25
64698;BME280;51124;53.394;-6.294;2023-05-01T03:26:54;101008.70;;;18.95;10.00
64698;BME280;51124;53.394;-6.294;2023-05-01T03:29:21;101007.61;;;18.75;9.89
64698;BME280;51124;53.394;-6.294;2023-05-01T03:31:49;101008.56;;;18.87;9.96
64698;BME280;51124;53.394;-6.294;2023-05-01T03:34:16;101012.22;;;18.17;10.25
64698;BME280;51124;53.394;-6.294;2023-05-01T03:36:44;101016.24;;;17.68;10.19
64698;BME280;51124;53.394;-6.294;2023-05-01T03:39:11;101016.19;;;18.94;9.77
64698;BME280;51124;53.394;-6.294;2023-05-01T03:41:38;101015.25;;;18.36;10.08
64698;BME280;51124;53.394;-6.294;2023-05-01T03:44:05;101012.50;;;18.91;9.91
64698;BME280;51124;53.394;-6.294;2023-05-01T03:46:33;101018.79;;;18.84;9.91
64698;BME280;51124;53.394;-6.294;2023-05-01T03:49:00;101022.35;;;19.03;9.78
64698;BME280;51124;53.394;-6.294;2023-05-01T03:51:27;101024.85;;;18.18;9.94
64698;BME280;51124;53.394;-6.294;2023-05-01T03:53:54;101030.21;;;19.31;9.88
64698;BME280;51124;53.394;-6.294;2023-05-01T03:56:22;101021.49;;;19.23;9.73
64698;BME280;51124;53.394;-6.294;2023-05-01T03:58:49;101027.53;;;18.03;10.12
64698;BME280;51124;53.394;-6.294;2023-05-01T04:01:16;101031.40;;;18.47;9.88
64698;BME280;51124;53.394;-6.294;2023-05-01T04:03:43;101032.93;;;19.20;9.74
64698;BME280;51124;53.394;-6.294;2023-05-01T04:06:11;101037.06;;;18.02;9.88
64698;BME280;51124;53.394;-6.294;2023-05-01T04:08:39;101041.77;;;17.90;10.02
64698;BME280;51124;53.394;-6.294;2023-05-01T04:11:06;101040.86;;;18.00;9.93
64698;BME280;51124;53.394;-6.294;2023-05-01T04:13:33;101044.11;;;18.66;9.90
64698;BME280;51124;53.394;-6.294;2023-05-01T04:16:00;101046.92;;;18.87;9.93
64698;BME280;51124;53.394;-6.294;2023-05-01T04:18:28;101055.86;;;19.11;9.67
64698;BME280;51124;53.394;-6.294;2023-05-01T04:20:55;101054.82;;;18.82;9.80
64698;BME280;51124;53.394;-6.294;2023-05-01T04:23:22;101056.89;;;19.22;9.91
64698;BME280;51124;53.394;-6.294;2023-05-01T04:25:49;101054.39;;;18.77;9.89
64698;BME280;51124;53.394;-6.294;2023-05-01T04:28:17;101054.99;;;18.67;9.72
64698;BME280;51124;53.394;-6.294;2023-05-01T04:30:44;101062.87;;;18.02;10.01
64698;BME280;51124;53.394;-6.294;2023-05-01T04:33:12;101065.27;;;18.94;9.78
64698;BME280;51124;53.394;-6.294;2023-05-01T04:35:39;101066.84;;;19.16;9.80
64698;BME280;51124;53.394;-6.294;2023-05-01T04:38:07;101071.09;;;19.23;9.81
64698;BME280;51124;53.394;-6.294;2023-05-01T04:40:34;101070.21;;;19.40;9.69
64698;BME280;51124;53.394;-6.294;2023-05-01T04:43:02;101070.58;;;18.80;9.86
64698;BME280;51124;53.394;-6.294;2023-05-01T04:45:29;101076.09;;;19.17;9.71
64698;BME280;51124;53.394;-6.294;2023-05-01T04:47:56;101076.58;;;18.34;9.79
64698;BME280;51124;53.394;-6.294;2023-05-01T04:50:24;101078.86;;;19.79;9.86
64698;BME280;51124;53.394;-6.294;2023-05-01T04:52:51;101082.54;;;21.09;10.17
64698;BME280;51124;53.394;-6.294;2023-05-01T04:55:18;101085.32;;;19.57;10.45
64698;BME280;51124;53.394;-6.294;2023-05-01T04:57:46;101079.37;;;18.71;10.34
64698;BME280;51124;53.394;-6.294;2023-05-01T05:00:14;101085.04;;;22.09;10.83
64698;BME280;51124;53.394;-6.294;2023-05-01T05:02:41;101093.98;;;21.77;11.17
64698;BME280;51124;53.394;-6.294;2023-05-01T05:05:09;101090.93;;;21.22;11.62
64698;BME280;51124;53.394;-6.294;2023-05-01T05:07:36;101099.51;;;21.25;11.73
64698;BME280;51124;53.394;-6.294;2023-05-01T05:10:04;101104.95;;;20.67;12.09
64698;BME280;51124;53.394;-6.294;2023-05-01T05:12:32;101114.21;;;20.71;12.23
64698;BME280;51124;53.394;-6.294;2023-05-01T05:14:59;101108.36;;;20.62;11.96
64698;BME280;51124;53.394;-6.294;2023-05-01T05:17:26;101110.11;;;21.12;11.97
64698;BME280;51124;53.394;-6.294;2023-05-01T05:19:54;101113.34;;;20.57;12.31
64698;BME280;51124;53.394;-6.294;2023-05-01T05:22:22;101110.25;;;20.76;12.25
64698;BME280;51124;53.394;-6.294;2023-05-01T05:24:54;101107.06;;;20.54;12.15
64698;BME280;51124;53.394;-6.294;2023-05-01T05:27:21;101113.33;;;20.44;12.25
64698;BME280;51124;53.394;-6.294;2023-05-01T05:29:49;101110.39;;;19.87;12.52
64698;BME280;51124;53.394;-6.294;2023-05-01T05:32:16;101108.82;;;21.24;12.12
64698;BME280;51124;53.394;-6.294;2023-05-01T05:34:44;101107.32;;;21.97;11.97
64698;BME280;51124;53.394;-6.294;2023-05-01T05:37:11;101104.94;;;20.96;12.20
64698;BME280;51124;53.394;-6.294;2023-05-01T05:39:38;101109.54;;;20.61;12.42
64698;BME280;51124;53.394;-6.294;2023-05-01T05:42:06;101103.98;;;20.95;12.19
64698;BME280;51124;53.394;-6.294;2023-05-01T05:44:33;101110.82;;;20.48;12.39
64698;BME280;51124;53.394;-6.294;2023-05-01T05:47:01;101116.17;;;20.09;12.51
64698;BME280;51124;53.394;-6.294;2023-05-01T05:49:28;101113.66;;;19.22;12.42
64698;BME280;51124;53.394;-6.294;2023-05-01T05:51:55;101112.57;;;18.55;11.65
64698;BME280;51124;53.394;-6.294;2023-05-01T05:54:23;101109.79;;;18.27;11.41
64698;BME280;51124;53.394;-6.294;2023-05-01T05:56:50;101105.60;;;18.64;10.88
64698;BME280;51124;53.394;-6.294;2023-05-01T05:59:17;101109.51;;;19.17;10.73
64698;BME280;51124;53.394;-6.294;2023-05-01T06:01:45;101117.49;;;19.37;10.54
64698;BME280;51124;53.394;-6.294;2023-05-01T06:04:12;101117.15;;;18.35;10.34
64698;BME280;51124;53.394;-6.294;2023-05-01T06:06:40;101120.48;;;19.52;9.99
64698;BME280;51124;53.394;-6.294;2023-05-01T06:09:07;101123.07;;;19.28;10.05
64698;BME280;51124;53.394;-6.294;2023-05-01T06:11:34;101124.94;;;19.18;9.98
64698;BME280;51124;53.394;-6.294;2023-05-01T06:14:01;101128.41;;;18.71;10.03
64698;BME280;51124;53.394;-6.294;2023-05-01T06:16:29;101134.07;;;19.13;9.63
64698;BME280;51124;53.394;-6.294;2023-05-01T06:18:56;101138.43;;;20.17;9.75
64698;BME280;51124;53.394;-6.294;2023-05-01T06:21:23;101139.81;;;20.33;9.60
64698;BME280;51124;53.394;-6.294;2023-05-01T06:23:51;101147.20;;;19.09;9.74
64698;BME280;51124;53.394;-6.294;2023-05-01T06:26:18;101145.82;;;18.80;9.69
64698;BME280;51124;53.394;-6.294;2023-05-01T06:28:45;101146.66;;;18.82;9.76
64698;BME280;51124;53.394;-6.294;2023-05-01T06:31:13;101152.32;;;19.70;9.68
64698;BME280;51124;53.394;-6.294;2023-05-01T06:33:40;101152.42;;;19.38;9.52
64698;BME280;51124;53.394;-6.294;2023-05-01T06:36:07;101152.21;;;19.56;9.45
64698;BME280;51124;53.394;-6.294;2023-05-01T06:38:34;101157.72;;;18.54;9.70
64698;BME280;51124;53.394;-6.294;2023-05-01T06:41:03;101157.96;;;19.44;9.42
64698;BME280;51124;53.394;-6.294;2023-05-01T06:43:30;101158.73;;;19.70;9.50
64698;BME280;51124;53.394;-6.294;2023-05-01T06:45:57;101166.91;;;19.30;9.42
64698;BME280;51124;53.394;-6.294;2023-05-01T06:48:24;101165.70;;;19.44;9.36
64698;BME280;51124;53.394;-6.294;2023-05-01T06:50:52;101165.11;;;19.53;9.28
64698;BME280;51124;53.394;-6.294;2023-05-01T06:53:19;101165.19;;;20.18;9.19
64698;BME280;51124;53.394;-6.294;2023-05-01T06:55:46;101169.66;;;19.93;9.13
64698;BME280;51124;53.394;-6.294;2023-05-01T06:58:13;101168.11;;;19.03;9.31
64698;BME280;51124;53.394;-6.294;2023-05-01T07:00:41;101172.57;;;19.58;9.12
64698;BME280;51124;53.394;-6.294;2023-05-01T07:03:08;101171.81;;;19.71;9.13
64698;BME280;51124;53.394;-6.294;2023-05-01T07:05:35;101175.16;;;19.42;9.13
64698;BME280;51124;53.394;-6.294;2023-05-01T07:08:03;101176.08;;;20.16;9.04
64698;BME280;51124;53.394;-6.294;2023-05-01T07:10:30;101172.03;;;20.20;9.01
64698;BME280;51124;53.394;-6.294;2023-05-01T07:12:58;101172.78;;;20.80;8.91
64698;BME280;51124;53.394;-6.294;2023-05-01T07:15:25;101171.27;;;20.39;8.95
64698;BME280;51124;53.394;-6.294;2023-05-01T07:17:52;101177.31;;;20.55;8.86
64698;BME280;51124;53.394;-6.294;2023-05-01T07:20:20;101183.52;;;20.62;8.95
64698;BME280;51124;53.394;-6.294;2023-05-01T07:22:47;101184.77;;;20.37;9.08
64698;BME280;51124;53.394;-6.294;2023-05-01T07:25:14;101181.55;;;20.33;9.12
64698;BME280;51124;53.394;-6.294;2023-05-01T07:27:42;101187.24;;;21.17;8.94
64698;BME280;51124;53.394;-6.294;2023-05-01T07:30:10;101189.39;;;20.55;9.03
64698;BME280;51124;53.394;-6.294;2023-05-01T07:32:37;101191.14;;;20.76;8.93
64698;BME280;51124;53.394;-6.294;2023-05-01T07:35:05;101192.45;;;20.79;8.88
64698;BME280;51124;53.394;-6.294;2023-05-01T07:37:32;101196.84;;;20.37;9.00
64698;BME280;51124;53.394;-6.294;2023-05-01T07:39:59;101192.15;;;20.41;8.87
64698;BME280;51124;53.394;-6.294;2023-05-01T07:42:27;101196.79;;;20.90;8.79
64698;BME280;51124;53.394;-6.294;2023-05-01T07:44:55;101197.96;;;20.58;8.86
64698;BME280;51124;53.394;-6.294;2023-05-01T07:47:22;101199.34;;;19.77;9.08
64698;BME280;51124;53.394;-6.294;2023-05-01T07:49:49;101206.47;;;22.74;9.22
64698;BME280;51124;53.394;-6.294;2023-05-01T07:52:17;101203.06;;;21.60;9.65
64698;BME280;51124;53.394;-6.294;2023-05-01T07:54:47;101201.79;;;20.24;9.79
64698;BME280;51124;53.394;-6.294;2023-05-01T07:57:15;101199.45;;;20.50;9.88
64698;BME280;51124;53.394;-6.294;2023-05-01T07:59:42;101204.67;;;23.40;10.18
64698;BME280;51124;53.394;-6.294;2023-05-01T08:02:10;101210.43;;;23.31;10.51
64698;BME280;51124;53.394;-6.294;2023-05-01T08:04:37;101215.38;;;22.63;10.91
64698;BME280;51124;53.394;-6.294;2023-05-01T08:07:05;101220.37;;;23.13;11.01
64698;BME280;51124;53.394;-6.294;2023-05-01T08:09:32;101221.61;;;23.15;11.01
64698;BME280;51124;53.394;-6.294;2023-05-01T08:12:00;101222.38;;;22.70;11.09
64698;BME280;51124;53.394;-6.294;2023-05-01T08:14:27;101226.10;;;22.00;11.25
64698;BME280;51124;53.394;-6.294;2023-05-01T08:16:55;101230.16;;;22.46;11.42
64698;BME280;51124;53.394;-6.294;2023-05-01T08:19:22;101228.90;;;22.28;11.50
64698;BME280;51124;53.394;-6.294;2023-05-01T08:21:50;101226.03;;;21.88;11.48
64698;BME280;51124;53.394;-6.294;2023-05-01T08:24:17;101223.97;;;22.29;11.46
64698;BME280;51124;53.394;-6.294;2023-05-01T08:26:45;101226.45;;;22.84;11.42
64698;BME280;51124;53.394;-6.294;2023-05-01T08:29:13;101233.05;;;22.57;11.51
64698;BME280;51124;53.394;-6.294;2023-05-01T08:31:40;101229.40;;;21.71;11.58
64698;BME280;51124;53.394;-6.294;2023-05-01T08:34:07;101234.38;;;21.53;11.54
64698;BME280;51124;53.394;-6.294;2023-05-01T08:36:35;101236.49;;;22.44;11.58
64698;BME280;51124;53.394;-6.294;2023-05-01T08:39:03;101237.32;;;22.65;11.42
64698;BME280;51124;53.394;-6.294;2023-05-01T08:41:31;101238.30;;;22.23;11.61
64698;BME280;51124;53.394;-6.294;2023-05-01T08:43:59;101236.22;;;21.82;11.65
64698;BME280;51124;53.394;-6.294;2023-05-01T08:46:32;101241.26;;;22.42;11.59
64698;BME280;51124;53.394;-6.294;2023-05-01T08:49:00;101247.02;;;21.18;11.42
64698;BME280;51124;53.394;-6.294;2023-05-01T08:51:32;101250.58;;;20.18;10.93
64698;BME280;51124;53.394;-6.294;2023-05-01T08:54:02;101253.06;;;20.21;10.63
64698;BME280;51124;53.394;-6.294;2023-05-01T08:56:32;101248.42;;;20.63;10.01
64698;BME280;51124;53.394;-6.294;2023-05-01T08:59:03;101246.16;;;21.80;9.89
64698;BME280;51124;53.394;-6.294;2023-05-01T09:01:31;101247.26;;;20.72;9.93
64698;BME280;51124;53.394;-6.294;2023-05-01T09:04:01;101243.30;;;20.44;9.72
64698;BME280;51124;53.394;-6.294;2023-05-01T09:06:29;101244.15;;;21.57;9.38
64698;BME280;51124;53.394;-6.294;2023-05-01T09:08:57;101248.73;;;21.02;8.94
64698;BME280;51124;53.394;-6.294;2023-05-01T09:11:25;101250.42;;;20.77;9.13
64698;BME280;51124;53.394;-6.294;2023-05-01T09:13:49;101247.82;;;21.25;8.97
64698;BME280;51124;53.394;-6.294;2023-05-01T09:16:23;101252.78;;;21.44;8.96
64698;BME280;51124;53.394;-6.294;2023-05-01T09:18:57;101246.90;;;21.57;8.86
64698;BME280;51124;53.394;-6.294;2023-05-01T09:21:30;101245.61;;;21.09;9.16
64698;BME280;51124;53.394;-6.294;2023-05-01T09:24:04;101250.75;;;20.73;9.21
64698;BME280;51124;53.394;-6.294;2023-05-01T09:26:38;101250.08;;;20.25;9.20
64698;BME280;51124;53.394;-6.294;2023-05-01T09:29:12;101251.21;;;20.05;9.08
64698;BME280;51124;53.394;-6.294;2023-05-01T09:31:40;101255.17;;;20.89;8.82
64698;BME280;51124;53.394;-6.294;2023-05-01T09:34:21;101254.31;;;21.07;8.75
64698;BME280;51124;53.394;-6.294;2023-05-01T09:36:44;101251.93;;;20.55;8.86
64698;BME280;51124;53.394;-6.294;2023-05-01T09:39:21;101255.84;;;19.96;9.06
64698;BME280;51124;53.394;-6.294;2023-05-01T09:41:52;101260.25;;;20.21;8.94
64698;BME280;51124;53.394;-6.294;2023-05-01T09:44:19;101251.26;;;21.17;8.80
64698;BME280;51124;53.394;-6.294;2023-05-01T09:46:47;101256.25;;;21.11;8.72
64698;BME280;51124;53.394;-6.294;2023-05-01T09:49:14;101260.01;;;20.94;8.76
64698;BME280;51124;53.394;-6.294;2023-05-01T09:51:41;101260.76;;;21.54;8.66
64698;BME280;51124;53.394;-6.294;2023-05-01T09:54:19;101265.31;;;21.10;8.83
64698;BME280;51124;53.394;-6.294;2023-05-01T09:56:47;101264.91;;;21.35;8.68
64698;BME280;51124;53.394;-6.294;2023-05-01T09:59:16;101266.16;;;20.28;8.84
64698;BME280;51124;53.394;-6.294;2023-05-01T10:01:37;101268.10;;;21.35;8.70
64698;BME280;51124;53.394;-6.294;2023-05-01T10:04:00;101270.66;;;21.40;8.66
64698;BME280;51124;53.394;-6.294;2023-05-01T10:06:38;101266.86;;;21.60;8.62
64698;BME280;51124;53.394;-6.294;2023-05-01T10:09:02;101272.08;;;20.71;8.79
64698;BME280;51124;53.394;-6.294;2023-05-01T10:11:53;101269.06;;;18.79;9.34
64698;BME280;51124;53.394;-6.294;2023-05-01T10:14:07;101276.95;;;18.05;9.90
64698;BME280;51124;53.394;-6.294;2023-05-01T10:16:41;101275.59;;;17.56;9.94
64698;BME280;51124;53.394;-6.294;2023-05-01T10:19:16;101278.77;;;16.82;10.07
64698;BME280;51124;53.394;-6.294;2023-05-01T10:21:49;101285.17;;;15.86;11.04
64698;BME280;51124;53.394;-6.294;2023-05-01T10:24:23;101290.58;;;15.85;11.09
64698;BME280;51124;53.394;-6.294;2023-05-01T10:26:56;101285.29;;;15.92;11.12
64698;BME280;51124;53.394;-6.294;2023-05-01T10:29:30;101287.13;;;15.62;11.35
64698;BME280;51124;53.394;-6.294;2023-05-01T10:32:05;101290.40;;;15.37;11.45
64698;BME280;51124;53.394;-6.294;2023-05-01T10:34:42;101293.35;;;16.46;11.10
64698;BME280;51124;53.394;-6.294;2023-05-01T10:37:09;101294.74;;;15.32;12.15
64698;BME280;51124;53.394;-6.294;2023-05-01T10:39:34;101289.21;;;16.31;10.85
64698;BME280;51124;53.394;-6.294;2023-05-01T10:42:09;101299.25;;;16.94;11.14
64698;BME280;51124;53.394;-6.294;2023-05-01T10:44:43;101293.48;;;16.42;10.75
64698;BME280;51124;53.394;-6.294;2023-05-01T10:47:48;101291.96;;;17.80;10.06
64698;BME280;51124;53.394;-6.294;2023-05-01T10:50:07;101296.88;;;15.86;10.24
64698;BME280;51124;53.394;-6.294;2023-05-01T10:52:20;101300.33;;;19.58;10.29
64698;BME280;51124;53.394;-6.294;2023-05-01T10:55:31;101298.52;;;16.58;11.61
64698;BME280;51124;53.394;-6.294;2023-05-01T10:57:41;101293.84;;;17.05;11.24
64698;BME280;51124;53.394;-6.294;2023-05-01T11:00:10;101301.29;;;19.35;11.15
64698;BME280;51124;53.394;-6.294;2023-05-01T11:02:23;101299.52;;;20.05;10.87
64698;BME280;51124;53.394;-6.294;2023-05-01T11:04:56;101307.47;;;18.13;12.10
64698;BME280;51124;53.394;-6.294;2023-05-01T11:07:30;101300.61;;;19.67;11.93
64698;BME280;51124;53.394;-6.294;2023-05-01T11:10:24;101309.28;;;20.14;11.97
64698;BME280;51124;53.394;-6.294;2023-05-01T11:12:48;101306.15;;;20.14;11.52
64698;BME280;51124;53.394;-6.294;2023-05-01T11:15:11;101303.21;;;20.22;11.28
64698;BME280;51124;53.394;-6.294;2023-05-01T11:17:46;101304.54;;;21.31;11.06
64698;BME280;51124;53.394;-6.294;2023-05-01T11:20:51;101301.89;;;22.49;10.57
64698;BME280;51124;53.394;-6.294;2023-05-01T11:22:55;101308.00;;;22.54;9.95
64698;BME280;51124;53.394;-6.294;2023-05-01T11:25:30;101310.54;;;23.13;9.80
64698;BME280;51124;53.394;-6.294;2023-05-01T11:28:03;101308.05;;;23.10;9.59
64698;BME280;51124;53.394;-6.294;2023-05-01T11:30:37;101307.74;;;22.78;9.75
64698;BME280;51124;53.394;-6.294;2023-05-01T11:33:11;101319.16;;;20.88;9.71
64698;BME280;51124;53.394;-6.294;2023-05-01T11:35:56;101317.15;;;19.89;10.78
64698;BME280;51124;53.394;-6.294;2023-05-01T11:38:20;101314.44;;;19.43;10.59
64698;BME280;51124;53.394;-6.294;2023-05-01T11:40:56;101312.88;;;21.84;10.38
64698;BME280;51124;53.394;-6.294;2023-05-01T11:43:20;101315.68;;;22.07;9.92
64698;BME280;51124;53.394;-6.294;2023-05-01T11:45:54;101311.60;;;22.24;9.61
64698;BME280;51124;53.394;-6.294;2023-05-01T11:48:28;101311.43;;;22.35;9.53
64698;BME280;51124;53.394;-6.294;2023-05-01T11:51:11;101313.24;;;19.72;9.92
64698;BME280;51124;53.394;-6.294;2023-05-01T11:53:34;101307.55;;;20.50;9.63
64698;BME280;51124;53.394;-6.294;2023-05-01T11:56:18;101307.08;;;22.36;8.44
64698;BME280;51124;53.394;-6.294;2023-05-01T11:58:41;101301.78;;;20.27;8.12
64698;BME280;51124;53.394;-6.294;2023-05-01T12:01:15;101293.72;;;22.39;7.94
64698;BME280;51124;53.394;-6.294;2023-05-01T12:03:48;101300.35;;;22.41;7.67
64698;BME280;51124;53.394;-6.294;2023-05-01T12:06:21;101298.88;;;21.58;7.82
64698;BME280;51124;53.394;-6.294;2023-05-01T12:08:55;101301.84;;;23.38;6.79
64698;BME280;51124;53.394;-6.294;2023-05-01T12:11:28;101300.58;;;20.19;7.72
64698;BME280;51124;53.394;-6.294;2023-05-01T12:14:02;101303.55;;;20.50;7.48
64698;BME280;51124;53.394;-6.294;2023-05-01T12:16:36;101307.05;;;20.08;7.87
64698;BME280;51124;53.394;-6.294;2023-05-01T12:19:12;101299.00;;;21.13;7.37
64698;BME280;51124;53.394;-6.294;2023-05-01T12:21:36;101295.74;;;22.02;7.16
64698;BME280;51124;53.394;-6.294;2023-05-01T12:24:10;101292.55;;;22.74;6.96
64698;BME280;51124;53.394;-6.294;2023-05-01T12:26:44;101285.86;;;21.29;6.77
64698;BME280;51124;53.394;-6.294;2023-05-01T12:29:18;101297.67;;;20.86;7.59
64698;BME280;51124;53.394;-6.294;2023-05-01T12:31:51;101290.59;;;19.26;7.29
64698;BME280;51124;53.394;-6.294;2023-05-01T12:34:29;101300.84;;;16.61;8.61
64698;BME280;51124;53.394;-6.294;2023-05-01T12:36:52;101299.42;;;17.75;8.38
64698;BME280;51124;53.394;-6.294;2023-05-01T12:39:35;101294.53;;;18.47;8.10
64698;BME280;51124;53.394;-6.294;2023-05-01T12:42:00;101292.96;;;19.83;7.05
64698;BME280;51124;53.394;-6.294;2023-05-01T12:44:33;101294.19;;;18.89;7.71
64698;BME280;51124;53.394;-6.294;2023-05-01T12:47:08;101294.89;;;20.24;7.34
64698;BME280;51124;53.394;-6.294;2023-05-01T12:49:41;101297.63;;;18.65;8.14
64698;BME280;51124;53.394;-6.294;2023-05-01T12:52:15;101298.09;;;18.75;8.35
64698;BME280;51124;53.394;-6.294;2023-05-01T12:54:48;101307.58;;;16.10;8.70
64698;BME280;51124;53.394;-6.294;2023-05-01T12:57:21;101306.01;;;12.95;10.76